Terminal Aerodrome Forecast
Issued by NWS Milwaukee/Sullivan, WI

Home | Current Version | Previous Version | Text Only | Print | Product List | Glossary On
Versions: 1 2 3 4 5 6 7 8 9 10 11 12 13 14 15 16 17 18 19 20 21 22 23 24 25 26 27 28 29 30 31 32 33 34 35 36 37 38 39 40 41 42 43 44 45 46 47 48 49 50
236
FTUS43 KMKX 272320
TAFMKE
TAF
KMKE 272320Z 2800/2906 15006KT P6SM SHRA VCTS SCT025 OVC060CB
     FM280100 16009KT P6SM VCSH SCT035 OVC060
     FM280600 17008KT 5SM SHRA VCTS SCT015 OVC040CB
     FM280900 18008KT 4SM SHRA VCTS OVC020CB
     FM281500 18012G20KT P6SM VCTS BKN025CB
     FM281700 18013G21KT P6SM VCSH BKN040
     FM290200 18008KT P6SM BKN250=

USA.gov is the U.S. government's official web portal to all federal, state and local government web resources and services.